Aledo, IL

8:53 AM CST on November 23, 2014 (GMT -0600)
Galesburg Municipal | Change Station
CLOSE
Current Station
Airport
Location: Galesburg,
Elevation: 764 ft
Nearby Weather Stations

Elev 764 ft 40.94 °N, 90.43 °W | Updated 18 minutes ago

Rain
Rain
48 °F
Feels Like 48 °F
N
7
Wind Variable Wind from SE

Today
High -- | Low -- °F
--% Chance of Precip.
Yesterday
High -- | Low -- °F
Precip. -- in
7:00 AM 4:38 PM
New Moon, 1% visible
Pressure 29.65 in
Visibility 7.0 miles
Clouds Scattered Clouds 3200 ft
Scattered Clouds 6000 ft
Overcast 8500 ft
Dew Point 46 °F
Humidity 95%
Rainfall 0.37 in
Snow Depth Not available.
UV 0 out of 12
Pollen .10 out of 12
Air Quality Not available.
Flu Activity Not available.
METAR KGBG 231435Z AUTO 14006KT 7SM RA SCT032 SCT060 OVC085 09/08 A2965 RMK AO2 P0003 T00870080

More Conditions Fewer Conditions

Pressure 29.65 in
Visibility 7.0 miles
Clouds Scattered Clouds 3200 ft
Scattered Clouds 6000 ft
Overcast 8500 ft
Dew Point 46 °F
Humidity 95%
Rainfall 0.37 in
Snow Depth Not available.
UV 0 out of 12
Pollen .10 out of 12
Air Quality Not available.
Flu Activity Not available.
METAR KGBG 231435Z AUTO 14006KT 7SM RA SCT032 SCT060 OVC085 09/08 A2965 RMK AO2 P0003 T00870080

More Conditions Fewer Conditions

10-Day Weather Forecast

Almanac

Astronomy

Nov. 23, 2014 Rise Set
Actual Time
Civil Twilight
Nautical Twilight
Astronomical Twilight
Moon
Length of Visible Light
Length of Day
Tomorrow will be .
, % of the Moon is Illuminated

Today's Extremes

State Highs State Lows

Community

WunderPhotos

Upload Photos

1,773,078 photos uploaded!

WunderBlogs® & News

Nearby

Air Quality

  Air Quality AQ Index Pollutant
Not available.

Snow Depth

Station Depth Elevation

Earthquake Activity

City Distance Mag. Time & Date
Minimum magnitude displayed is 2.5.

Coastal Water Temperatures

Place Temperature

Nearby Weather Stations